Buffalo, WY

4:56 AM MDT on August 21, 2014 (GMT -0600)
Esponda Ranch | Change Station
CLOSE
Current Station
Personal Weather Station
Location: Buffalo, WY
Elevation: 4665 ft
Nearby Weather Stations

Elev 4665 ft 44.32 °N, 106.67 °W | Updated 12 minutes ago

Clear
Clear
52.4 °F
Feels Like 52.4 °F
N
0.0
Wind Variable Wind from ESE
Gusts 3.0 mph

Today
High -- | Low -- °F
--% Chance of Precip.
Yesterday
High -- | Low -- °F
Precip. -- in
6:17 AM 8:02 PM
Waning Crescent, 15% visible
Pressure 29.87 in
Visibility 10.0 miles
Clouds Clear
Dew Point 47 °F
Humidity 83%
Rainfall 0.00 in
Snow Depth Not available.
UV 0 out of 12
Pollen 8.70 out of 12
Air Quality Not available.
Flu Activity Not available.
METAR KBYG 211053Z AUTO 33005KT 10SM CLR 14/08 A3002 RMK AO2 SLP114 T01390083 $

More Conditions Fewer Conditions

Pressure 29.87 in
Visibility 10.0 miles
Clouds Clear
Dew Point 47 °F
Humidity 83%
Rainfall 0.00 in
Snow Depth Not available.
UV 0 out of 12
Pollen 8.70 out of 12
Air Quality Not available.
Flu Activity Not available.
METAR KBYG 211053Z AUTO 33005KT 10SM CLR 14/08 A3002 RMK AO2 SLP114 T01390083 $

More Conditions Fewer Conditions

10-Day Weather Forecast

Almanac

Astronomy

Aug. 21, 2014 Rise Set
Actual Time 6:17 AM MDT 8:02 PM MDT
Civil Twilight 5:46 AM MDT 8:32 PM MDT
Nautical Twilight 5:08 AM MDT 9:10 PM MDT
Astronomical Twilight 4:27 AM MDT 9:50 PM MDT
Moon 2:46 AM MDT 5:35 PM MDT
Length of Visible Light 14h 46m
Length of Day
13h 45m
Tomorrow will be 2m 50s shorter.
Waning Crescent, 15% of the Moon is Illuminated
Today
Waning Crescent
Aug 25
New
Sep 2
First Quarter
Sep 8
Full
Sep 15
Last Quarter

Today's Extremes

State Highs State Lows

Community

WunderPhotos

Upload Photos

1,745,871 photos uploaded!

Nearby

Snow Depth

Station Depth Elevation
Casper Mountain 1 in 7850 ft
Reno Hill 0 in 8500 ft
Windy Peak 0 in 7900 ft
Sylvan Lake 0 in 8420 ft
Big Sandy Opening 1 in 9080 ft

Earthquake Activity

City Distance Mag. Time & Date
No recent earthquake activity has been reported nearby.
Minimum magnitude displayed is 2.5.

Coastal Water Temperatures

Place Temperature
No Stations Reporting

Nearby Weather Stations